createdAt,value
2019-05-18T00:01:50.230Z,38.40
2019-05-18T00:04:20.001Z,42.90
2019-05-18T00:06:49.695Z,39.30
2019-05-18T00:09:19.341Z,41.93
2019-05-18T00:11:51.902Z,41.90
2019-05-18T00:14:21.678Z,40.87
2019-05-18T00:16:52.353Z,41.70
2019-05-18T00:19:24.114Z,42.17
2019-05-18T00:21:53.789Z,42.53
2019-05-18T00:24:23.455Z,41.50
2019-05-18T00:26:54.035Z,41.40
2019-05-18T00:29:23.675Z,40.53
2019-05-18T00:31:53.342Z,42.90
2019-05-18T00:34:23.622Z,41.17
2019-05-18T00:36:53.234Z,38.60
2019-05-18T00:39:22.895Z,44.20
2019-05-18T00:44:23.579Z,40.97
2019-05-18T00:47:04.965Z,39.03
2019-05-18T00:49:46.535Z,42.73
2019-05-18T00:52:28.085Z,40.43
2019-05-18T00:55:09.045Z,37.40
2019-05-18T00:57:49.825Z,33.70
2019-05-18T01:00:31.504Z,36.57
2019-05-18T01:03:12.479Z,31.27
2019-05-18T01:05:54.231Z,32.97
2019-05-18T01:08:35.655Z,27.70
2019-05-18T01:11:16.411Z,25.63
2019-05-18T01:13:57.771Z,26.60
2019-05-18T01:16:38.680Z,21.97
2019-05-18T01:19:20.374Z,22.77
2019-05-18T01:22:01.188Z,22.20
2019-05-18T01:24:42.782Z,22.00
2019-05-18T01:27:23.686Z,23.37
2019-05-18T01:30:05.351Z,23.00
2019-05-18T01:32:47.340Z,23.00
2019-05-18T01:35:28.076Z,21.77
2019-05-18T01:38:08.950Z,21.07
2019-05-18T01:40:49.783Z,25.57
2019-05-18T01:43:30.594Z,52.20
2019-05-18T01:46:11.410Z,22.53
2019-05-18T01:48:52.304Z,28.63
2019-05-18T01:51:33.018Z,28.40
2019-05-18T01:54:14.539Z,26.63
2019-05-18T01:56:56.303Z,28.23
2019-05-18T01:59:37.143Z,27.93
2019-05-18T02:02:18.710Z,28.93
2019-05-18T02:04:59.538Z,31.57
2019-05-18T02:07:41.011Z,34.10
2019-05-18T02:10:22.804Z,28.63
2019-05-18T02:13:04.221Z,30.30
2019-05-18T02:15:45.104Z,30.33
2019-05-18T02:18:29.070Z,37.47
2019-05-18T02:21:09.015Z,41.53
2019-05-18T02:23:50.524Z,31.50
2019-05-18T02:26:31.385Z,31.80
2019-05-18T02:29:21.694Z,42.17
2019-05-18T02:35:11.606Z,37.00
2019-05-18T03:08:26.503Z,25.23
2019-05-18T03:14:16.056Z,23.20
2019-05-18T03:20:06.347Z,20.17
2019-05-18T03:23:15.394Z,23.53
2019-05-18T03:26:04.436Z,20.33
2019-05-18T03:31:52.584Z,21.60
2019-05-18T03:34:23.109Z,21.07
2019-05-18T03:36:52.706Z,19.93
2019-05-18T03:42:40.965Z,24.73
2019-05-18T03:45:30.231Z,24.33
2019-05-18T03:54:29.366Z,23.33
2019-05-18T04:03:40.394Z,23.93
2019-05-18T04:06:29.033Z,21.20
2019-05-18T04:12:18.782Z,24.67
2019-05-18T04:14:48.518Z,27.03
2019-05-18T04:17:18.415Z,24.70
2019-05-18T04:19:48.060Z,22.80
2019-05-18T04:22:17.736Z,26.83
2019-05-18T04:24:47.405Z,24.13
2019-05-18T04:27:17.083Z,23.10
2019-05-18T04:29:47.018Z,23.60
2019-05-18T04:32:17.025Z,24.57
2019-05-18T04:34:46.745Z,24.70
2019-05-18T04:37:16.444Z,21.70
2019-05-18T04:39:46.030Z,20.57
2019-05-18T04:42:15.962Z,20.00
2019-05-18T04:44:45.731Z,20.20
2019-05-18T04:47:15.702Z,17.13
2019-05-18T04:50:02.150Z,15.97
2019-05-18T04:52:16.653Z,16.37
2019-05-18T04:54:46.311Z,15.83
2019-05-18T04:57:16.049Z,17.87
2019-05-18T04:59:45.795Z,19.17
2019-05-18T05:02:15.823Z,21.17
2019-05-18T05:04:45.742Z,19.20
2019-05-18T05:07:15.501Z,16.83
2019-05-18T05:09:45.600Z,17.10
2019-05-18T05:12:15.179Z,17.63
2019-05-18T05:14:45.079Z,17.70
2019-05-18T05:17:34.015Z,14.80
2019-05-18T05:26:15.738Z,14.03
2019-05-18T05:28:56.538Z,14.10
2019-05-18T05:31:38.149Z,14.93
2019-05-18T05:34:19.926Z,14.47
2019-05-18T05:37:01.358Z,17.20
2019-05-18T05:39:43.101Z,15.97
2019-05-18T05:42:23.569Z,16.27
2019-05-18T05:50:53.467Z,16.27
2019-05-18T05:56:43.171Z,17.10
2019-05-18T05:59:31.969Z,15.57
2019-05-18T06:02:20.879Z,18.37
2019-05-18T06:08:10.301Z,18.63
2019-05-18T06:16:59.194Z,16.97
2019-05-18T06:19:28.902Z,18.53
2019-05-18T06:21:58.555Z,19.03
2019-05-18T06:24:28.221Z,17.67
2019-05-18T06:26:58.255Z,17.63
2019-05-18T06:29:28.368Z,16.23
2019-05-18T06:31:57.964Z,19.17
2019-05-18T06:34:27.716Z,20.03
2019-05-18T06:36:57.315Z,17.50
2019-05-18T06:39:26.930Z,16.27
2019-05-18T06:41:56.639Z,16.23
2019-05-18T06:44:26.695Z,16.87
2019-05-18T06:46:56.285Z,16.70
2019-05-18T06:49:26.529Z,15.40
2019-05-18T06:51:56.212Z,17.10
2019-05-18T06:54:27.136Z,15.57
2019-05-18T06:56:58.920Z,16.13
2019-05-18T06:59:29.497Z,16.00
2019-05-18T07:01:59.213Z,16.43
2019-05-18T07:04:28.917Z,16.50
2019-05-18T07:06:58.676Z,17.00
2019-05-18T07:09:28.284Z,18.03
2019-05-18T07:11:58.475Z,16.50
2019-05-18T07:14:28.137Z,15.97
2019-05-18T07:16:57.885Z,15.80
2019-05-18T07:19:27.607Z,15.87
2019-05-18T07:21:57.969Z,15.57
2019-05-18T07:24:27.653Z,15.93
2019-05-18T07:26:58.231Z,14.03
2019-05-18T07:29:27.870Z,13.70
2019-05-18T07:31:58.692Z,16.20
2019-05-18T07:34:28.430Z,13.50
2019-05-18T07:36:58.180Z,12.53
2019-05-18T07:39:27.904Z,13.47
2019-05-18T07:41:57.766Z,14.17
2019-05-18T07:44:27.457Z,14.40
2019-05-18T07:46:57.382Z,14.23
2019-05-18T07:49:27.343Z,12.90
2019-05-18T07:51:57.044Z,12.93
2019-05-18T07:54:27.323Z,14.30
2019-05-18T07:56:58.561Z,12.07
2019-05-18T07:59:28.256Z,12.93
2019-05-18T08:01:57.924Z,12.23
2019-05-18T08:04:27.848Z,13.50
2019-05-18T08:06:57.427Z,13.13
2019-05-18T08:09:27.217Z,13.60
2019-05-18T08:11:57.008Z,13.80
2019-05-18T08:14:26.862Z,13.83
2019-05-18T08:16:57.937Z,13.23
2019-05-18T08:19:28.122Z,14.77
2019-05-18T08:21:57.743Z,13.03
2019-05-18T08:24:27.427Z,14.10
2019-05-18T08:27:01.830Z,13.53
2019-05-18T08:29:29.826Z,14.20
2019-05-18T08:47:26.021Z,14.97
2019-05-18T08:59:05.576Z,15.13
2019-05-18T09:01:54.210Z,14.90
2019-05-18T09:16:54.581Z,15.93
2019-05-18T09:23:11.412Z,14.37
2019-05-18T09:26:12.398Z,13.57
2019-05-18T09:28:43.236Z,14.63
2019-05-18T09:31:24.954Z,12.97
2019-05-18T09:34:06.792Z,14.30
2019-05-18T09:36:48.216Z,11.77
2019-05-18T09:39:29.632Z,12.20
2019-05-18T09:42:10.479Z,12.57
2019-05-18T09:44:52.097Z,12.80
2019-05-18T09:47:33.274Z,12.57
2019-05-18T09:50:14.587Z,12.63
2019-05-18T09:52:56.106Z,12.13
2019-05-18T09:55:37.737Z,16.00
2019-05-18T09:58:18.607Z,10.67
2019-05-18T10:00:59.525Z,12.93
2019-05-18T10:03:41.082Z,10.83
2019-05-18T10:06:22.543Z,10.83
2019-05-18T10:09:06.859Z,10.43
2019-05-18T10:11:55.614Z,10.80
2019-05-18T10:14:44.686Z,12.60
2019-05-18T10:20:32.814Z,14.53
2019-05-18T10:23:21.604Z,14.97
2019-05-18T10:26:10.321Z,15.13
2019-05-18T10:28:59.307Z,14.33
2019-05-18T10:31:48.021Z,13.47
2019-05-18T10:34:37.025Z,15.70
2019-05-18T10:52:46.639Z,12.77
2019-05-18T10:55:16.846Z,12.00
2019-05-18T10:57:46.595Z,13.07
2019-05-18T11:00:48.644Z,12.83
2019-05-18T11:03:27.150Z,11.83
2019-05-18T11:05:56.896Z,11.17
2019-05-18T11:08:27.168Z,12.40
2019-05-18T11:11:08.191Z,10.77
2019-05-18T11:13:49.770Z,10.50
2019-05-18T11:16:39.943Z,10.20
2019-05-18T11:19:29.084Z,12.53
2019-05-18T11:21:58.711Z,12.10
2019-05-18T11:33:51.557Z,12.00
2019-05-18T11:36:33.135Z,10.53
2019-05-18T11:39:14.749Z,10.67
2019-05-18T11:41:56.705Z,10.57
2019-05-18T11:44:38.339Z,9.57
2019-05-18T11:47:19.983Z,10.53
2019-05-18T11:50:01.387Z,10.67
2019-05-18T11:52:43.524Z,10.40
2019-05-18T11:55:24.772Z,10.57
2019-05-18T12:00:53.728Z,11.43
2019-05-18T12:06:43.174Z,11.27
2019-05-18T12:12:32.797Z,11.30
2019-05-18T12:21:31.601Z,11.43
2019-05-18T12:30:29.152Z,13.27
2019-05-18T12:35:52.180Z,12.90
2019-05-18T12:38:42.305Z,13.10
2019-05-18T12:41:31.281Z,12.90
2019-05-18T12:44:21.248Z,12.77
2019-05-18T12:47:28.766Z,12.80
2019-05-18T13:05:17.894Z,10.13
2019-05-18T13:11:06.067Z,11.80
2019-05-18T13:16:55.504Z,13.27
2019-05-18T13:19:25.338Z,14.60
2019-05-18T13:21:55.008Z,13.73
2019-05-18T13:24:24.704Z,13.77
2019-05-18T13:26:54.840Z,14.60
2019-05-18T13:29:24.631Z,14.27
2019-05-18T13:31:54.321Z,14.57
2019-05-18T13:34:24.327Z,14.87
2019-05-18T13:36:57.952Z,13.20
2019-05-18T13:39:27.755Z,14.00
2019-05-18T13:41:57.494Z,13.63
2019-05-18T13:44:27.675Z,14.77
2019-05-18T13:46:57.580Z,15.07
2019-05-18T13:49:27.253Z,14.40
2019-05-18T13:51:59.318Z,15.70
2019-05-18T13:54:29.390Z,15.03
2019-05-18T13:56:59.522Z,15.63
2019-05-18T13:59:29.680Z,16.47
2019-05-18T14:01:59.466Z,17.70
2019-05-18T14:04:29.149Z,14.30
2019-05-18T14:06:58.815Z,14.63
2019-05-18T14:09:28.896Z,9.77
2019-05-18T14:11:58.785Z,9.90
2019-05-18T14:14:28.800Z,9.33
2019-05-18T14:16:58.635Z,9.33
2019-05-18T14:19:31.459Z,8.87
2019-05-18T14:22:01.463Z,9.63
2019-05-18T14:24:31.562Z,9.00
2019-05-18T14:27:01.250Z,8.33
2019-05-18T14:29:31.039Z,9.13
2019-05-18T14:32:00.894Z,9.27
2019-05-18T14:34:31.034Z,9.73
2019-05-18T14:37:01.597Z,9.10
2019-05-18T14:39:33.766Z,10.70
2019-05-18T14:42:22.912Z,11.93
2019-05-18T14:48:32.818Z,12.43
2019-05-18T14:54:51.210Z,12.70
2019-05-18T14:57:40.485Z,13.13
2019-05-18T15:00:14.090Z,13.50
2019-05-18T15:02:45.365Z,13.77
2019-05-18T15:15:01.424Z,16.33
2019-05-18T15:17:50.149Z,15.97
2019-05-18T15:20:58.479Z,17.03
2019-05-18T15:29:56.358Z,17.53
2019-05-18T15:33:03.901Z,16.27
2019-05-18T15:35:33.922Z,15.67
2019-05-18T15:38:15.304Z,15.23
2019-05-18T15:40:57.558Z,14.60
2019-05-18T15:43:39.140Z,16.03
2019-05-18T15:46:20.576Z,16.73
2019-05-18T15:49:00.763Z,16.37
2019-05-18T15:54:50.304Z,15.90
2019-05-18T16:00:38.433Z,16.63
2019-05-18T16:09:27.217Z,18.57
2019-05-18T16:11:57.260Z,17.57
2019-05-18T16:14:45.904Z,18.43
2019-05-18T16:17:39.324Z,18.83
2019-05-18T16:20:09.165Z,18.53
2019-05-18T16:22:58.528Z,19.57
2019-05-18T16:25:47.180Z,18.57
2019-05-18T16:28:35.925Z,19.17
2019-05-18T16:31:24.574Z,14.97
2019-05-18T16:33:54.378Z,11.77
2019-05-18T16:36:43.016Z,7.67
2019-05-18T16:39:13.022Z,5.90
2019-05-18T16:42:03.000Z,7.60
2019-05-18T16:44:33.102Z,7.33
2019-05-18T16:47:02.863Z,6.10
2019-05-18T16:49:32.602Z,6.77
2019-05-18T16:52:02.376Z,6.57
2019-05-18T16:54:32.401Z,5.73
2019-05-18T16:57:03.089Z,5.43
2019-05-18T16:59:34.083Z,5.93
2019-05-18T17:02:03.807Z,5.77
2019-05-18T17:04:52.517Z,5.77
2019-05-18T17:07:22.153Z,6.53
2019-05-18T17:10:11.333Z,7.63
2019-05-18T17:12:41.027Z,5.90
2019-05-18T17:18:01.931Z,10.10
2019-05-18T17:20:31.754Z,7.63
2019-05-18T17:23:01.781Z,7.33
2019-05-18T17:25:50.512Z,7.47
2019-05-18T17:28:20.147Z,7.23
2019-05-18T17:30:50.251Z,7.40
2019-05-18T17:33:20.283Z,5.53
2019-05-18T17:36:00.089Z,5.83
2019-05-18T17:38:22.174Z,6.77
2019-05-18T17:40:51.981Z,6.33
2019-05-18T17:43:22.148Z,6.07
2019-05-18T17:46:11.008Z,6.57
2019-05-18T17:48:40.703Z,6.67
2019-05-18T17:51:10.796Z,7.10
2019-05-18T17:53:40.525Z,6.43
2019-05-18T17:56:10.159Z,7.23
2019-05-18T17:58:40.232Z,6.87
2019-05-18T18:01:10.083Z,9.23
2019-05-18T18:10:18.252Z,9.10
2019-05-18T18:12:48.375Z,8.80
2019-05-18T18:18:08.243Z,8.30
2019-05-18T18:20:37.966Z,5.93
2019-05-18T18:23:08.952Z,7.10
2019-05-18T18:25:38.917Z,7.00
2019-05-18T18:28:27.858Z,10.23
2019-05-18T18:30:57.536Z,7.80
2019-05-18T18:33:46.172Z,6.97
2019-05-18T18:36:16.028Z,7.00
2019-05-18T18:38:45.953Z,8.40
2019-05-18T18:41:29.660Z,7.80
2019-05-18T18:43:47.932Z,8.03
2019-05-18T18:46:38.158Z,7.40
2019-05-18T18:51:51.068Z,8.27
2019-05-18T18:54:24.755Z,8.27
2019-05-18T18:57:13.446Z,6.80
2019-05-18T18:59:43.067Z,6.93
2019-05-18T19:02:13.006Z,9.40
2019-05-18T19:05:01.810Z,7.30
2019-05-18T19:07:31.431Z,7.07
2019-05-18T19:10:20.660Z,7.30
2019-05-18T19:12:50.317Z,6.30
2019-05-18T19:15:20.124Z,4.77
2019-05-18T19:17:50.291Z,3.90
2019-05-18T19:20:20.075Z,4.17
2019-05-18T19:23:09.114Z,4.17
2019-05-18T19:25:57.780Z,5.97
2019-05-18T19:28:27.539Z,5.00
2019-05-18T19:30:57.647Z,5.97
2019-05-18T19:33:27.287Z,7.77
2019-05-18T19:35:57.349Z,7.47
2019-05-18T19:38:45.993Z,7.17
2019-05-18T19:41:34.739Z,7.63
2019-05-18T19:44:04.419Z,8.67
2019-05-18T19:46:34.855Z,7.83
2019-05-18T19:49:04.677Z,8.50
2019-05-18T19:53:57.258Z,8.33
2019-05-18T19:56:27.463Z,10.17
2019-05-18T19:58:57.094Z,8.23
2019-05-18T20:01:26.787Z,11.10
2019-05-18T20:03:57.959Z,11.03
2019-05-18T20:06:46.605Z,10.90
2019-05-18T20:09:16.354Z,11.20
2019-05-18T20:11:46.438Z,10.63
2019-05-18T20:14:16.075Z,12.57
2019-05-18T20:16:45.850Z,11.20
2019-05-18T20:19:15.509Z,9.73
2019-05-18T20:21:45.253Z,12.10
2019-05-18T20:24:34.008Z,10.70
2019-05-18T20:27:04.111Z,11.43
2019-05-18T20:29:34.184Z,10.20
2019-05-18T20:32:22.927Z,10.80
2019-05-18T20:34:52.926Z,10.17
2019-05-18T20:40:31.855Z,8.60
2019-05-18T20:43:03.777Z,9.73
2019-05-18T20:45:33.785Z,11.30
2019-05-18T20:48:03.663Z,9.43
2019-05-18T20:50:33.339Z,10.23
2019-05-18T20:55:53.239Z,9.10
2019-05-18T20:58:37.143Z,9.77
2019-05-18T21:01:13.563Z,10.23
2019-05-18T21:03:43.288Z,9.60
2019-05-18T21:06:13.238Z,9.07
2019-05-18T21:08:43.016Z,8.87
2019-05-18T21:11:31.766Z,8.63
2019-05-18T21:14:01.797Z,6.80
2019-05-18T21:16:50.749Z,5.07
2019-05-18T21:19:20.584Z,5.10
2019-05-18T21:21:50.198Z,5.87
2019-05-18T21:24:20.115Z,5.17
2019-05-18T21:27:08.796Z,5.30
2019-05-18T21:29:38.464Z,5.00
